Flight Track Log - Related Links

Times and Time Zones

All times are in EST time to prevent confusion due to time zone crossing. See the ASQ4103 flight status page for this flight to view local times or setup timezone preferences in your user account.

Time Position Orientation Groundspeed Altitude Reporting Facility
EST Latitude Longitude Course Direction KTS MPH feet Rate Location/Type
Mon 05:01:35 PM 33.6500 -84.4500 246° West 163 188 2,500  Level Atlanta TRACON
Mon 05:02:35 PM 33.6500 -84.5167 270° West 223 257 4,200 2,300 Climbing Atlanta TRACON
Mon 05:03:35 PM 33.6667 -84.6000 284° West 260 299 7,100 2,500 Climbing Atlanta TRACON
Mon 05:04:35 PM 33.6833 -84.6833 284° West 260 299 9,200 1,625 Climbing Atlanta TRACON
Mon 05:06:00 PM 33.4798 -84.9840 246° West  Level Estimated
Mon 05:06:47 PM 33.6558 -84.8747 260° West 284 327 12,300  Level Atlanta Center
Mon 05:07:47 PM 33.6153 -84.9767 244° Southwest 324 373 13,900 1,800 Climbing Atlanta Center
Mon 05:08:47 PM 33.5728 -85.0786 243° Southwest 339 390 15,900 1,950 Climbing Atlanta Center
Mon 05:09:47 PM 33.5258 -85.1900 243° Southwest 344 396 17,800 1,650 Climbing Atlanta Center
Mon 05:10:47 PM 33.5019 -85.2994 255° West 337 388 19,200 1,450 Climbing Atlanta Center
Mon 05:11:47 PM 33.4839 -85.4086 259° West 337 388 20,700 1,450 Climbing Atlanta Center
Mon 05:12:47 PM 33.4681 -85.5181 260° West 337 388 22,100 1,300 Climbing Atlanta Center
Mon 05:13:47 PM 33.4500 -85.6272 259° West 337 388 23,300 1,150 Climbing Atlanta Center
Mon 05:14:47 PM 33.4339 -85.7389 260° West 337 388 24,400 1,100 Climbing Atlanta Center
Mon 05:15:47 PM 33.4158 -85.8358 257° West 337 388 25,500 1,100 Climbing Atlanta Center
Mon 05:16:47 PM 33.3975 -85.9472 259° West 337 388 26,600 1,050 Climbing Atlanta Center
Mon 05:17:47 PM 33.3769 -86.0564 257° West 337 388 27,600 950 Climbing Atlanta Center
Mon 05:18:47 PM 33.3606 -86.1728 260° West 348 400 28,500 950 Climbing Atlanta Center
Mon 05:19:47 PM 33.3417 -86.2892 259° West 353 406 29,500 950 Climbing Atlanta Center
Mon 05:20:47 PM 33.3228 -86.4081 259° West 361 415 30,400 900 Climbing Atlanta Center
Mon 05:21:47 PM 33.3042 -86.5094 258° West 361 415 31,300 950 Climbing Atlanta Center
Mon 05:22:47 PM 33.2844 -86.6431 260° West 361 415 32,300 950 Climbing Atlanta Center
Mon 05:23:47 PM 33.2653 -86.7617 259° West 367 422 33,200 950 Climbing Atlanta Center
Mon 05:24:47 PM 33.2439 -86.8753 257° West 372 428 34,200 950 Climbing Atlanta Center
Mon 05:25:47 PM 33.2122 -86.9886 252° West 366 421 35,100 900 Climbing Atlanta Center
Mon 05:26:47 PM 33.1572 -87.1008 240° Southwest 366 421 36,000 450 Climbing Atlanta Center
Mon 05:27:47 PM 33.1106 -87.2083 243° Southwest 360 414 36,000  Level Atlanta Center
Mon 05:28:47 PM 33.0597 -87.3178 241° Southwest 366 421 36,000  Level Atlanta Center
Mon 05:29:47 PM 33.0217 -87.4106 244° Southwest 372 428 36,000  Level Atlanta Center
Mon 05:31:37 PM 32.9189 -87.6383 242° Southwest 392 451 36,000  Level Memphis Center
Mon 05:32:39 PM 32.8664 -87.7503 241° Southwest 389 448 36,000  Level Memphis Center
Mon 05:33:41 PM 32.8139 -87.8644 241° Southwest 391 450 36,000  Level Memphis Center
Mon 05:34:43 PM 32.7575 -87.9881 242° Southwest 390 449 36,000  Level Memphis Center
Mon 05:35:45 PM 32.7061 -88.1000 241° Southwest 390 449 36,000  Level Memphis Center
Mon 05:36:47 PM 32.6547 -88.2119 241° Southwest 388 447 36,000  Level Memphis Center
Mon 05:37:49 PM 32.6028 -88.3225 241° Southwest 387 445 36,000  Level Memphis Center
Mon 05:38:52 PM 32.5419 -88.4550 241° Southwest 384 442 36,000  Level Memphis Center
Mon 05:39:54 PM 32.4903 -88.5647 241° Southwest 384 442 36,000  Level Memphis Center
Mon 05:40:56 PM 32.4386 -88.6747 241° Southwest 384 442 36,000  Level Memphis Center
Mon 05:41:58 PM 32.3867 -88.7842 241° Southwest 384 442 36,000  Level Memphis Center
Mon 05:43:00 PM 32.3500 -88.9017 250° West 386 444 36,000  Level Memphis Center
Mon 05:44:02 PM 32.3167 -89.0208 252° West 383 441 36,000  Level Memphis Center
Mon 05:45:04 PM 32.2744 -89.1664 251° West 388 447 36,000  Level Memphis Center
Mon 05:46:06 PM 32.2392 -89.2872 251° West 390 449 36,000  Level Memphis Center
Mon 05:47:08 PM 32.2044 -89.4081 251° West 390 449 36,000  Level Memphis Center
Mon 05:48:10 PM 32.1692 -89.5283 251° West 390 449 36,000  Level Memphis Center
Mon 05:49:12 PM 32.1336 -89.6500 251° West 391 450 36,000  Level Memphis Center
Mon 05:50:14 PM 32.0903 -89.7944 251° West 391 450 36,000  Level Memphis Center
Mon 05:51:16 PM 32.0550 -89.9150 251° West 391 450 36,000  Level Memphis Center
Mon 05:52:18 PM 32.0192 -90.0364 251° West 392 451 36,000  Level Memphis Center
Mon 05:53:20 PM 31.9822 -90.1578 250° West 394 453 36,000  Level Memphis Center
Mon 05:54:22 PM 31.9464 -90.2794 251° West 395 455 36,000  Level Memphis Center
Mon 05:55:01 PM 31.9175 -90.3792 251° West 397 457 36,000  Level Houston Center
Mon 05:56:03 PM 31.8800 -90.5014 250° West 399 459 36,000  Level Houston Center
Mon 05:57:06 PM 31.8425 -90.6244 250° West 401 461 36,000  Level Houston Center
Mon 05:58:08 PM 31.8053 -90.7483 251° West 403 464 36,000  Level Houston Center
Mon 05:59:10 PM 31.7686 -90.8717 251° West 402 463 36,000  Level Houston Center
Mon 06:00:12 PM 31.7300 -90.9944 250° West 402 463 36,000  Level Houston Center
Mon 06:01:14 PM 31.6839 -91.1281 248° West 405 466 36,000  Level Houston Center
Mon 06:02:16 PM 31.6297 -91.2453 242° Southwest 407 468 36,000  Level Houston Center
Mon 06:03:18 PM 31.5783 -91.3633 243° Southwest 407 468 36,000  Level Houston Center
Mon 06:04:20 PM 31.5144 -91.5061 242° Southwest 412 474 36,000  Level Houston Center
Mon 06:05:23 PM 31.4631 -91.6247 243° Southwest 410 472 36,000  Level Houston Center
Mon 06:06:25 PM 31.4083 -91.7439 242° Southwest 414 476 36,000  Level Houston Center
Mon 06:07:27 PM 31.3558 -91.8622 243° Southwest 411 473 36,000  Level Houston Center
Mon 06:08:29 PM 31.3017 -91.9811 242° Southwest 413 475 36,000 -48 Level Houston Center
Mon 06:09:31 PM 31.2456 -92.1081 243° Southwest 413 475 35,900  Descending Houston Center
Mon 06:10:33 PM 31.1911 -92.2269 242° Southwest 416 479 36,000 48 Climbing Houston Center
Mon 06:11:35 PM 31.1256 -92.3681 242° Southwest 414 476 36,000  Level Houston Center
Mon 06:12:38 PM 31.0717 -92.4881 242° Southwest 418 481 36,000 -336 Level Houston Center
Mon 06:13:40 PM 31.0186 -92.6069 243° Southwest 415 478 35,300 -1,016 Descending Houston Center
Mon 06:14:42 PM 30.9653 -92.7247 242° Southwest 414 476 33,900 -1,355 Descending Houston Center
Mon 06:15:44 PM 30.9114 -92.8436 242° Southwest 414 476 32,500 -1,500 Descending Houston Center
Mon 06:16:46 PM 30.8567 -92.9617 242° Southwest 415 478 30,800 -1,839 Descending Houston Center
Mon 06:17:48 PM 30.7894 -93.1033 241° Southwest 417 480 28,700 -1,887 Descending Houston Center
Mon 06:18:50 PM 30.7342 -93.2250 242° Southwest 424 488 26,900 -1,694 Descending Houston Center
Mon 06:19:52 PM 30.6772 -93.3475 242° Southwest 431 496 25,200 -1,632 Descending Houston Center
Mon 06:20:55 PM 30.6208 -93.4669 241° Southwest 428 493 23,500 -1,488 Descending Houston Center
Mon 06:21:57 PM 30.5558 -93.6081 242° Southwest 420 483 22,100 -1,210 Descending Houston Center
Mon 06:22:59 PM 30.5025 -93.7231 242° Southwest 415 478 21,000 -1,161 Descending Houston Center
Mon 06:24:01 PM 30.4483 -93.8364 241° Southwest 409 471 19,700 -1,597 Descending Houston Center
Mon 06:25:03 PM 30.3950 -93.9481 241° Southwest 402 463 17,700 -1,887 Descending Houston Center
Mon 06:26:05 PM 30.3431 -94.0572 241° Southwest 392 451 15,800 -2,034 Descending Houston Center
Mon 06:27:01 PM 30.2883 -94.1711 241° Southwest 374 430 13,700 -2,226 Descending Houston Center
Mon 06:27:07 PM 30.2842 -94.1847 250° West 380 437 13,500 -1,560 Descending Houston Center
Mon 06:27:51 PM 30.2447 -94.2617 239° Southwest 365 420 12,400 -1,333 Descending Houston Center
Mon 06:28:10 PM 30.2347 -94.2853 244° Southwest 367 422 12,100 -364 Descending Houston Center
Mon 06:28:57 PM 30.1967 -94.3694 242° Southwest 342 394 12,000 -194 Descending Houston Center
Mon 06:29:12 PM 30.1936 -94.3858 258° West 352 405 11,900 -97 Descending Houston Center
Mon 06:29:59 PM 30.1775 -94.4736 258° West 332 382 11,900 -194 Level Houston Center
Mon 06:30:14 PM 30.1753 -94.4889 260° West 332 382 11,700 -1,013 Descending Houston Center
Mon 06:31:16 PM 30.1581 -94.5961 260° West 340 391 10,600 -956 Descending Houston Center
Mon 06:32:07 PM 30.1372 -94.7086 258° West 342 394 9,900 -581 Descending Houston Center
Mon 06:32:18 PM 30.1364 -94.7253 267° West 342 394 10,000 98 Climbing Houston Center
Mon 06:33:08 PM 30.1203 -94.8147 258° West 337 388 10,000  Level Houston Center
Mon 06:33:20 PM 30.1178 -94.8311 260° West 339 390 10,000 -109 Level Houston Center
Mon 06:34:03 PM 30.1061 -94.9106 260° West 330 380 9,900 -97 Descending Houston Center
Mon 06:34:22 PM 30.1056 -94.9336 268° West 324 373 9,900 -985 Level Houston Center
Mon 06:35:10 PM 30.1058 -95.0169 270° West 281 323 8,800 -1,161 Descending Houston Center
Mon 06:35:24 PM 30.1067 -95.0217 282° West 285 328 8,700 -1,500 Descending Houston Center
Mon 06:36:06 PM 30.1053 -95.1017 269° West 289 333 7,400 -1,429 Descending Houston Center
Mon 06:36:27 PM 30.1067 -95.1133 278° West 285 328 7,200 -1,180 Descending Houston Center
Mon 06:37:07 PM 30.1050 -95.1886 269° West 270 311 6,200 -1,161 Descending Houston Center
Mon 06:37:29 PM 30.1067 -95.2175 274° West 274 315 6,000 -179 Descending Houston Center
Mon 06:38:14 PM 30.1069 -95.2778 270° West 240 276 6,000  Level Houston Center
Mon 06:38:31 PM 30.1067 -95.2931 269° West 246 283 6,000 -98 Level Houston Center
Mon 06:39:15 PM 30.1058 -95.3575 269° West 251 289 5,900 -387 Descending Houston Center
Mon 06:39:33 PM 30.1075 -95.3719 278° West 246 283 5,600 -1,161 Descending Houston Center
Mon 06:40:17 PM 30.1064 -95.4347 269° West 241 277 4,700 -1,161 Descending Houston Center
Mon 06:40:35 PM 30.1061 -95.4492 269° West 243 280 4,400 -1,091 Descending Houston Center
Mon 06:41:12 PM 30.0983 -95.5081 261° West 254 292 3,700 -968 Descending Houston Center
Mon 06:41:37 PM 30.0850 -95.5169 210° Southwest 254 292 3,400 -885 Descending Houston Center
Mon 06:42:13 PM 30.0408 -95.5222 186° South 183 211 2,800 -871 Descending Houston Center
Mon 06:42:39 PM 30.0283 -95.5058 131° Southeast 188 216 2,500 -677 Descending Houston Center
Mon 06:43:15 PM 30.0119 -95.4797 126° Southeast 163 188 2,100 -667 Descending Houston Center
Mon 06:43:42 PM 30.0058 -95.4614 111° Southeast 169 194 1,800 -689 Descending Houston Center
Mon 06:44:16 PM 30.0058 -95.4347 90° East 134 154 1,400 -677 Descending Houston Center
Mon 06:44:44 PM 30.0072 -95.4192 84° East 145 167 1,100 -618 Descending Houston Center
Mon 06:45:24 PM 30.0061 -95.3914 93° East 120 138 700 -581 Descending Houston Center
Mon 06:45:46 PM 30.0072 -95.3797 84° East 128 147 500 -286 Descending Houston Center
Mon 06:46:48 PM 30.0069 -95.3411 90° East 127 146 300 -194 Descending Houston Center

Login

Don't have an account? Register now (free) for customized features, flight alerts, and more!